Time;durP1;ratioP1;P1;durP2;ratioP2;P2;SDS_P1;SDS_P2;PMS_P1;PMS_P2;Temp;Humidity;BMP_temperature;BMP_pressure;BME280_temperature;BME280_humidity;BME280_pressure;Samples;Min_cycle;Max_cycle;Signal;HPM_P1;HPM_P2
2022/06/29 00:02:06;;;;;;;;;;;;;;100821.38;;;;104230;1319;35521;-38
2022/06/29 00:04:38;;;;;;;;;;;;;;100807.70;;;;104302;1315;33860;-38
2022/06/29 00:07:09;;;;;;;;;;;;;;100806.80;;;;104357;1319;34411;-38
2022/06/29 00:09:40;;;;;;;;;;;;;;100809.41;;;;104262;1319;34987;-38
2022/06/29 00:12:12;;;;;;;;;;;;;;100812.94;;;;104238;1315;34315;-38
2022/06/29 00:14:43;;;;;;;;;;;;;;100818.95;;;;104379;1316;34939;-38
2022/06/29 00:17:14;;;;;;;;;;;;;;100824.71;;;;104303;1319;33788;-38
2022/06/29 00:19:45;;;;;;;;;;;;;;100821.61;;;;104269;1313;34782;-38
2022/06/29 00:22:16;;;;;;;;;;;;;;100815.90;;;;104287;1315;34577;-38
2022/06/29 00:24:46;;;;;;;;;;;;;;100815.79;;;;104345;1318;34545;-38
2022/06/29 00:27:21;;;;;;;;;;;;;;100812.78;;;;104370;1314;33885;-38
2022/06/29 00:29:53;;;;;;;;;;;;;;100803.61;;;;104271;1320;33036;-38
2022/06/29 00:32:23;;;;;;;;;;;;;;100799.01;;;;104252;1313;34296;-38
2022/06/29 00:34:54;;;;;;;;;;;;;;100798.86;;;;104381;1318;33874;-38
2022/06/29 00:37:25;;;;;;;;;;;;;;100806.38;;;;104385;1320;35493;-38
2022/06/29 00:39:57;;;;;;;;;;;;;;100801.70;;;;104285;1315;34904;-38
2022/06/29 00:42:28;;;;;;;;;;;;;;100796.44;;;;104354;1316;33756;-39
2022/06/29 00:44:59;;;;;;;;;;;;;;100796.52;;;;104375;1315;34074;-39
2022/06/29 00:47:30;;;;;;;;;;;;;;100799.36;;;;104378;1320;34698;-38
2022/06/29 00:50:01;;;;;;;;;;;;;;100806.98;;;;104328;1313;33370;-38
2022/06/29 00:52:32;;;;;;;;;;;;;;100803.70;;;;104387;1319;34514;-38
2022/06/29 00:55:10;;;;;;;;;;;;;;100798.66;;;;104260;1315;34264;-38
2022/06/29 00:57:42;;;;;;;;;;;;;;100797.95;;;;104267;1319;33731;-38
2022/06/29 01:00:18;;;;;;;;;;;;;;100796.41;;;;104304;1319;34778;-38
2022/06/29 01:02:51;;;;;;;;;;;;;;100779.65;;;;104379;1314;35324;-39
2022/06/29 01:05:23;;;;;;;;;;;;;;100768.94;;;;104360;1319;35782;-38
2022/06/29 01:07:54;;;;;;;;;;;;;;100756.61;;;;104249;1319;35911;-39
2022/06/29 01:10:26;;;;;;;;;;;;;;100750.49;;;;104274;1319;34987;-38
2022/06/29 01:12:56;;;;;;;;;;;;;;100753.46;;;;104359;1314;34028;-38
2022/06/29 01:15:28;;;;;;;;;;;;;;100752.35;;;;104374;1319;34292;-38
2022/06/29 01:17:58;;;;;;;;;;;;;;100749.59;;;;104364;1316;35037;-38
2022/06/29 01:20:29;;;;;;;;;;;;;;100743.89;;;;104270;1319;35251;-38
2022/06/29 01:23:02;;;;;;;;;;;;;;100738.96;;;;104354;1318;35626;-37
2022/06/29 01:25:33;;;;;;;;;;;;;;100738.21;;;;104325;1314;34807;-38
2022/06/29 01:28:05;;;;;;;;;;;;;;100738.80;;;;104270;1319;33444;-39
2022/06/29 01:30:36;;;;;;;;;;;;;;100729.88;;;;104371;1314;33943;-39
2022/06/29 01:33:08;;;;;;;;;;;;;;100726.65;;;;104383;1314;33915;-38
2022/06/29 01:35:39;;;;;;;;;;;;;;100727.90;;;;104365;1318;34359;-39
2022/06/29 01:38:10;;;;;;;;;;;;;;100728.58;;;;104245;1314;33375;-39
2022/06/29 01:40:43;;;;;;;;;;;;;;100723.29;;;;104376;1314;35667;-38
2022/06/29 01:43:14;;;;;;;;;;;;;;100719.68;;;;104272;1315;33851;-38
2022/06/29 01:45:45;;;;;;;;;;;;;;100713.95;;;;104272;1319;34331;-39
2022/06/29 01:48:16;;;;;;;;;;;;;;100713.89;;;;104227;1320;34884;-38
2022/06/29 01:50:51;;;;;;;;;;;;;;100716.55;;;;104349;1314;34416;-38
2022/06/29 01:53:23;;;;;;;;;;;;;;100704.55;;;;104368;1320;35778;-38
2022/06/29 01:55:55;;;;;;;;;;;;;;100700.71;;;;104397;1319;32896;-38
2022/06/29 01:58:26;;;;;;;;;;;;;;100706.07;;;;104281;1317;35004;-38
2022/06/29 02:00:56;;;;;;;;;;;;;;100709.29;;;;104358;1320;35852;-38
2022/06/29 02:03:27;;;;;;;;;;;;;;100712.20;;;;104260;1319;33242;-38
2022/06/29 02:05:58;;;;;;;;;;;;;;100704.73;;;;104338;1316;33499;-38
2022/06/29 02:08:29;;;;;;;;;;;;;;100716.58;;;;104387;1314;34488;-38
2022/06/29 02:11:00;;;;;;;;;;;;;;100710.67;;;;104275;1317;35119;-38
2022/06/29 02:13:32;;;;;;;;;;;;;;100708.52;;;;104240;1313;33308;-39
2022/06/29 02:16:04;;;;;;;;;;;;;;100703.44;;;;104249;1316;35163;-38
2022/06/29 02:18:36;;;;;;;;;;;;;;100700.20;;;;104385;1319;35806;-38
2022/06/29 02:21:07;;;;;;;;;;;;;;100698.95;;;;104227;1315;34992;-38
2022/06/29 02:23:37;;;;;;;;;;;;;;100697.23;;;;104283;1319;33343;-38
2022/06/29 02:26:09;;;;;;;;;;;;;;100702.15;;;;104369;1315;34969;-38
2022/06/29 02:28:39;;;;;;;;;;;;;;100706.48;;;;104377;1316;33992;-38
2022/06/29 02:36:47;;;;;;;;;;;;;;100711.88;;;;104351;1314;34415;-38
2022/06/29 02:39:18;;;;;;;;;;;;;;100710.04;;;;104257;1319;35262;-38
2022/06/29 02:41:49;;;;;;;;;;;;;;100711.02;;;;104336;1320;35344;-38
2022/06/29 02:44:20;;;;;;;;;;;;;;100712.29;;;;104256;1319;34616;-38
2022/06/29 02:46:54;;;;;;;;;;;;;;100709.43;;;;104344;1318;34611;-38
2022/06/29 02:49:25;;;;;;;;;;;;;;100708.42;;;;104365;1318;35346;-38
2022/06/29 02:51:56;;;;;;;;;;;;;;100714.97;;;;104298;1314;33828;-38
2022/06/29 02:54:27;;;;;;;;;;;;;;100713.17;;;;104285;1311;33949;-38
2022/06/29 02:56:58;;;;;;;;;;;;;;100711.56;;;;104379;1316;35208;-39
2022/06/29 02:59:29;;;;;;;;;;;;;;100709.17;;;;104268;1315;35168;-38
2022/06/29 03:02:00;;;;;;;;;;;;;;100710.05;;;;104291;1317;33963;-38
2022/06/29 03:04:32;;;;;;;;;;;;;;100713.42;;;;104380;1318;33323;-38
2022/06/29 03:07:04;;;;;;;;;;;;;;100714.19;;;;104379;1316;34612;-38
2022/06/29 03:09:35;;;;;;;;;;;;;;100713.22;;;;104339;1311;34262;-38
2022/06/29 03:12:07;;;;;;;;;;;;;;100713.95;;;;103964;1319;402224;-38
2022/06/29 03:14:38;;;;;;;;;;;;;;100711.60;;;;104358;1318;33142;-38
2022/06/29 03:17:09;;;;;;;;;;;;;;100714.94;;;;104367;1320;34508;-38
2022/06/29 03:19:40;;;;;;;;;;;;;;100710.69;;;;104355;1315;34123;-38
2022/06/29 03:22:11;;;;;;;;;;;;;;100704.35;;;;104220;1316;34972;-38
2022/06/29 03:24:42;;;;;;;;;;;;;;100701.84;;;;104265;1316;34667;-38
2022/06/29 03:27:13;;;;;;;;;;;;;;100702.52;;;;104340;1315;35077;-38
2022/06/29 03:29:44;;;;;;;;;;;;;;100699.17;;;;104239;1319;34326;-38
2022/06/29 03:32:15;;;;;;;;;;;;;;100699.40;;;;104285;1316;34030;-38
2022/06/29 03:34:46;;;;;;;;;;;;;;100703.47;;;;104243;1316;34860;-38
2022/06/29 03:37:17;;;;;;;;;;;;;;100708.19;;;;104384;1319;35521;-38
2022/06/29 03:39:48;;;;;;;;;;;;;;100700.94;;;;104357;1319;35382;-37
2022/06/29 03:42:19;;;;;;;;;;;;;;100703.56;;;;104329;1314;34939;-38
2022/06/29 03:44:51;;;;;;;;;;;;;;100706.04;;;;104281;1319;33862;-38
2022/06/29 03:47:25;;;;;;;;;;;;;;100708.85;;;;104346;1318;33473;-38
2022/06/29 03:49:55;;;;;;;;;;;;;;100713.17;;;;104364;1311;33206;-38
2022/06/29 03:52:26;;;;;;;;;;;;;;100720.31;;;;104384;1315;34657;-38
2022/06/29 03:54:57;;;;;;;;;;;;;;100715.08;;;;104354;1319;34050;-38
2022/06/29 03:57:28;;;;;;;;;;;;;;100703.95;;;;104291;1313;34946;-39
2022/06/29 03:59:59;;;;;;;;;;;;;;100704.89;;;;104315;1316;33572;-38
2022/06/29 04:02:31;;;;;;;;;;;;;;100703.80;;;;104332;1310;33788;-38
2022/06/29 04:05:02;;;;;;;;;;;;;;100698.33;;;;104309;1320;33311;-39
2022/06/29 04:07:36;;;;;;;;;;;;;;100695.40;;;;104286;1319;33088;-38
2022/06/29 04:10:09;;;;;;;;;;;;;;100687.54;;;;104284;1315;34952;-40
2022/06/29 04:12:39;;;;;;;;;;;;;;100674.23;;;;104378;1314;35077;-38
2022/06/29 04:15:20;;;;;;;;;;;;;;100665.98;;;;104338;1316;35502;-38
2022/06/29 04:17:51;;;;;;;;;;;;;;100664.64;;;;104414;1319;34643;-38
2022/06/29 04:23:11;;;;;;;;;;;;;;100670.31;;;;104403;1311;33613;-38
2022/06/29 04:25:42;;;;;;;;;;;;;;100671.45;;;;104232;1313;34850;-38
2022/06/29 04:28:14;;;;;;;;;;;;;;100669.50;;;;104357;1311;35124;-38
2022/06/29 04:30:45;;;;;;;;;;;;;;100667.35;;;;104275;1319;33654;-38
2022/06/29 04:33:16;;;;;;;;;;;;;;100666.03;;;;104344;1316;34390;-38
2022/06/29 04:35:47;;;;;;;;;;;;;;100666.60;;;;104341;1320;33104;-38
2022/06/29 04:38:18;;;;;;;;;;;;;;100667.28;;;;104248;1317;35028;-38
2022/06/29 04:40:48;;;;;;;;;;;;;;100668.04;;;;104379;1319;34664;-38
2022/06/29 04:43:22;;;;;;;;;;;;;;100663.90;;;;104338;1318;33429;-38
2022/06/29 04:48:41;;;;;;;;;;;;;;100662.68;;;;104366;1319;35563;-38
2022/06/29 04:51:15;;;;;;;;;;;;;;100664.69;;;;104379;1319;35237;-38
2022/06/29 04:53:47;;;;;;;;;;;;;;100661.27;;;;104333;1314;35379;-38
2022/06/29 04:56:18;;;;;;;;;;;;;;100657.16;;;;104368;1319;33928;-38
2022/06/29 04:58:50;;;;;;;;;;;;;;100661.48;;;;104254;1319;34582;-38
2022/06/29 05:01:24;;;;;;;;;;;;;;100668.41;;;;104390;1310;33630;-38
2022/06/29 05:03:55;;;;;;;;;;;;;;100674.55;;;;104316;1314;34929;-38
2022/06/29 05:06:27;;;;;;;;;;;;;;100681.63;;;;104267;1319;35479;-37
2022/06/29 05:08:57;;;;;;;;;;;;;;100684.59;;;;104349;1317;33989;-38
2022/06/29 05:11:28;;;;;;;;;;;;;;100682.11;;;;104356;1316;33217;-38
2022/06/29 05:13:59;;;;;;;;;;;;;;100682.73;;;;104310;1318;33584;-38
2022/06/29 05:16:31;;;;;;;;;;;;;;100685.55;;;;104367;1314;34173;-38
2022/06/29 05:19:03;;;;;;;;;;;;;;100689.49;;;;104253;1317;35531;-39
2022/06/29 05:21:34;;;;;;;;;;;;;;100689.85;;;;104294;1317;34690;-38
2022/06/29 05:24:06;;;;;;;;;;;;;;100688.76;;;;104357;1314;35709;-38
2022/06/29 05:26:38;;;;;;;;;;;;;;100688.46;;;;104296;1319;35433;-38
2022/06/29 05:29:09;;;;;;;;;;;;;;100689.20;;;;104365;1314;34913;-38
2022/06/29 05:31:39;;;;;;;;;;;;;;100692.64;;;;104323;1316;34134;-38
2022/06/29 05:34:10;;;;;;;;;;;;;;100689.48;;;;104258;1315;34366;-38
2022/06/29 05:36:44;;;;;;;;;;;;;;100685.60;;;;104343;1314;33379;-38
2022/06/29 05:39:15;;;;;;;;;;;;;;100683.07;;;;104378;1316;34408;-38
2022/06/29 05:41:46;;;;;;;;;;;;;;100682.01;;;;104249;1317;35650;-38
2022/06/29 05:44:16;;;;;;;;;;;;;;100683.94;;;;104337;1319;35861;-38
2022/06/29 05:46:48;;;;;;;;;;;;;;100682.17;;;;104257;1313;34941;-38
2022/06/29 05:49:20;;;;;;;;;;;;;;100679.42;;;;104341;1315;34789;-38
2022/06/29 05:51:50;;;;;;;;;;;;;;100680.73;;;;104281;1312;35435;-39
2022/06/29 05:54:22;;;;;;;;;;;;;;100682.98;;;;104342;1318;34364;-39
2022/06/29 05:56:52;;;;;;;;;;;;;;100686.02;;;;104354;1314;33708;-38
2022/06/29 05:59:23;;;;;;;;;;;;;;100684.46;;;;104346;1315;34430;-38
2022/06/29 06:01:54;;;;;;;;;;;;;;100687.56;;;;104265;1317;34558;-39
2022/06/29 06:04:25;;;;;;;;;;;;;;100693.11;;;;104257;1319;35159;-38
2022/06/29 06:06:56;;;;;;;;;;;;;;100694.95;;;;104235;1319;33581;-38
2022/06/29 06:09:28;;;;;;;;;;;;;;100696.20;;;;104323;1320;35934;-39
2022/06/29 06:12:01;;;;;;;;;;;;;;100696.80;;;;104264;1319;36194;-38
2022/06/29 06:14:31;;;;;;;;;;;;;;100696.66;;;;104249;1317;34894;-39
2022/06/29 06:17:02;;;;;;;;;;;;;;100692.91;;;;104334;1319;35572;-39
2022/06/29 06:19:33;;;;;;;;;;;;;;100697.35;;;;104296;1319;35943;-39
2022/06/29 06:22:04;;;;;;;;;;;;;;100703.76;;;;104320;1314;35509;-38
2022/06/29 06:24:35;;;;;;;;;;;;;;100707.92;;;;104332;1318;34708;-38
2022/06/29 06:27:06;;;;;;;;;;;;;;100708.77;;;;104339;1310;34218;-39
2022/06/29 06:29:37;;;;;;;;;;;;;;100705.98;;;;104327;1319;35621;-39
2022/06/29 06:32:09;;;;;;;;;;;;;;100708.30;;;;104292;1312;34536;-40
2022/06/29 06:34:40;;;;;;;;;;;;;;100709.33;;;;104315;1316;34132;-39
2022/06/29 06:37:13;;;;;;;;;;;;;;100708.86;;;;104225;1319;35348;-39
2022/06/29 06:41:21;;;;;;;;;;;;;;100706.42;;;;104315;1314;34481;-39
2022/06/29 06:42:35;;;;;;;;;;;;;;100703.31;;;;104332;1318;35243;-39
2022/06/29 06:45:09;;;;;;;;;;;;;;100701.52;;;;104238;1315;34573;-39
2022/06/29 06:47:39;;;;;;;;;;;;;;100703.10;;;;104342;1318;35427;-39
2022/06/29 06:50:11;;;;;;;;;;;;;;100706.35;;;;104237;1319;35874;-39
2022/06/29 06:52:42;;;;;;;;;;;;;;100705.90;;;;104262;1319;35780;-39
2022/06/29 06:55:15;;;;;;;;;;;;;;100708.55;;;;104253;1319;34818;-39
2022/06/29 06:57:46;;;;;;;;;;;;;;100717.45;;;;104235;1317;36147;-39
2022/06/29 07:00:18;;;;;;;;;;;;;;100723.16;;;;104248;1319;32727;-38
2022/06/29 07:02:49;;;;;;;;;;;;;;100726.39;;;;104229;1314;34109;-39
2022/06/29 07:05:20;;;;;;;;;;;;;;100723.38;;;;104251;1310;34141;-38
2022/06/29 07:07:51;;;;;;;;;;;;;;100719.94;;;;104183;1319;35189;-38
2022/06/29 07:10:22;;;;;;;;;;;;;;100723.95;;;;104273;1313;34861;-39
2022/06/29 07:12:56;;;;;;;;;;;;;;100727.06;;;;104191;1317;34281;-38
2022/06/29 07:15:27;;;;;;;;;;;;;;100728.80;;;;104296;1318;35493;-38
2022/06/29 07:17:57;;;;;;;;;;;;;;100732.03;;;;104253;1319;36198;-38
2022/06/29 07:20:30;;;;;;;;;;;;;;100732.67;;;;104423;1310;34882;-41
2022/06/29 07:23:01;;;;;;;;;;;;;;100744.59;;;;104351;1315;36205;-39
2022/06/29 07:25:32;;;;;;;;;;;;;;100741.51;;;;104356;1317;35390;-39
2022/06/29 07:28:02;;;;;;;;;;;;;;100739.59;;;;104343;1315;34493;-41
2022/06/29 07:30:34;;;;;;;;;;;;;;100738.84;;;;104339;1314;35318;-39
2022/06/29 07:33:05;;;;;;;;;;;;;;100735.20;;;;104345;1317;34258;-40
2022/06/29 07:35:35;;;;;;;;;;;;;;100729.75;;;;104358;1317;34656;-40
2022/06/29 07:38:10;;;;;;;;;;;;;;100727.92;;;;104223;1319;33571;-41
2022/06/29 07:40:41;;;;;;;;;;;;;;100723.54;;;;104327;1313;35346;-40
2022/06/29 07:43:12;;;;;;;;;;;;;;100721.84;;;;104366;1315;35880;-39
2022/06/29 07:45:43;;;;;;;;;;;;;;100724.00;;;;104364;1317;34814;-39
2022/06/29 07:48:14;;;;;;;;;;;;;;100723.46;;;;104361;1315;35228;-38
2022/06/29 07:50:45;;;;;;;;;;;;;;100724.51;;;;104347;1311;35486;-38
2022/06/29 07:53:15;;;;;;;;;;;;;;100725.26;;;;104352;1314;35156;-38
2022/06/29 07:55:46;;;;;;;;;;;;;;100721.33;;;;104353;1311;33752;-38
2022/06/29 07:58:18;;;;;;;;;;;;;;100721.04;;;;104240;1317;34272;-38
2022/06/29 08:00:49;;;;;;;;;;;;;;100720.64;;;;104340;1313;34674;-38
2022/06/29 08:03:19;;;;;;;;;;;;;;100719.75;;;;104342;1317;35730;-38
2022/06/29 08:05:51;;;;;;;;;;;;;;100727.11;;;;104373;1317;34352;-38
2022/06/29 08:08:24;;;;;;;;;;;;;;100731.52;;;;104346;1316;35700;-38
2022/06/29 08:10:56;;;;;;;;;;;;;;100729.11;;;;104390;1314;33118;-38
2022/06/29 08:13:27;;;;;;;;;;;;;;100724.70;;;;104374;1317;34520;-38
2022/06/29 08:15:58;;;;;;;;;;;;;;100720.48;;;;104349;1315;34998;-39
2022/06/29 08:18:29;;;;;;;;;;;;;;100724.67;;;;104340;1311;34426;-39
2022/06/29 08:21:00;;;;;;;;;;;;;;100726.70;;;;104372;1316;35549;-39
2022/06/29 08:23:34;;;;;;;;;;;;;;100720.40;;;;104365;1317;33167;-40
2022/06/29 08:26:05;;;;;;;;;;;;;;100721.27;;;;104367;1315;35471;-40
2022/06/29 08:28:35;;;;;;;;;;;;;;100719.07;;;;104331;1317;35607;-41
2022/06/29 08:31:07;;;;;;;;;;;;;;100718.10;;;;104352;1314;34923;-41
2022/06/29 08:33:37;;;;;;;;;;;;;;100713.25;;;;104304;1317;34835;-41
2022/06/29 08:36:15;;;;;;;;;;;;;;100706.09;;;;104163;1314;34835;-39
2022/06/29 08:38:55;;;;;;;;;;;;;;100704.13;;;;104413;1315;35464;-39
2022/06/29 08:41:26;;;;;;;;;;;;;;100699.48;;;;104402;1317;33654;-39
2022/06/29 08:44:03;;;;;;;;;;;;;;100696.19;;;;104341;1317;35463;-38
2022/06/29 08:46:37;;;;;;;;;;;;;;100702.48;;;;104533;1318;33671;-42
2022/06/29 08:49:10;;;;;;;;;;;;;;100695.52;;;;104475;1321;33549;-42
2022/06/29 08:51:42;;;;;;;;;;;;;;100693.88;;;;104537;1316;35835;-40
2022/06/29 08:54:13;;;;;;;;;;;;;;100689.58;;;;104415;1314;34893;-41
2022/06/29 08:56:44;;;;;;;;;;;;;;100691.13;;;;104355;1314;33673;-40
2022/06/29 08:59:15;;;;;;;;;;;;;;100691.68;;;;104360;1317;33559;-42
2022/06/29 09:01:46;;;;;;;;;;;;;;100691.45;;;;104294;1317;33137;-42
2022/06/29 09:04:16;;;;;;;;;;;;;;100699.00;;;;104375;1316;35523;-46
2022/06/29 09:06:48;;;;;;;;;;;;;;100701.26;;;;104355;1314;34613;-43
2022/06/29 09:09:19;;;;;;;;;;;;;;100702.73;;;;104354;1317;35861;-41
2022/06/29 09:11:51;;;;;;;;;;;;;;100706.07;;;;104344;1314;35521;-41
2022/06/29 09:14:23;;;;;;;;;;;;;;100704.02;;;;104382;1314;35153;-41
2022/06/29 09:17:00;;;;;;;;;;;;;;100708.17;;;;104341;1313;34946;-39
2022/06/29 09:19:43;;;;;;;;;;;;;;100712.91;;;;104408;1316;35479;-39
2022/06/29 09:22:15;;;;;;;;;;;;;;100716.60;;;;104378;1316;35888;-38
2022/06/29 09:24:47;;;;;;;;;;;;;;100715.20;;;;104348;1315;33629;-36
2022/06/29 09:27:18;;;;;;;;;;;;;;100718.05;;;;104202;1314;33539;-36
2022/06/29 09:29:51;;;;;;;;;;;;;;100722.85;;;;104285;1313;35316;-36
2022/06/29 09:32:25;;;;;;;;;;;;;;100720.35;;;;104267;1314;35176;-37
2022/06/29 09:34:56;;;;;;;;;;;;;;100723.84;;;;104169;1316;33547;-36
2022/06/29 09:37:27;;;;;;;;;;;;;;100720.91;;;;104257;1314;34775;-36
2022/06/29 09:39:58;;;;;;;;;;;;;;100719.80;;;;104316;1317;35743;-36
2022/06/29 09:42:29;;;;;;;;;;;;;;100719.50;;;;104327;1317;33522;-36
2022/06/29 09:45:00;;;;;;;;;;;;;;100719.36;;;;104377;1315;33552;-36
2022/06/29 09:47:31;;;;;;;;;;;;;;100718.78;;;;104378;1310;34818;-36
2022/06/29 09:50:02;;;;;;;;;;;;;;100716.65;;;;104367;1314;34097;-36
2022/06/29 09:52:33;;;;;;;;;;;;;;100717.96;;;;104363;1311;33318;-36
2022/06/29 09:55:06;;;;;;;;;;;;;;100711.54;;;;104363;1314;35984;-36
2022/06/29 09:57:38;;;;;;;;;;;;;;100715.21;;;;104274;1316;34700;-40
2022/06/29 10:03:08;;;;;;;;;;;;;;100708.80;;;;104381;1316;34398;-43
2022/06/29 10:06:04;;;;;;;;;;;;;;100712.52;;;;104376;1316;36154;-42
2022/06/29 10:08:36;;;;;;;;;;;;;;100708.38;;;;104361;1315;34656;-42
2022/06/29 10:13:57;;;;;;;;;;;;;;100718.89;;;;104311;1317;35311;-38
2022/06/29 10:16:32;;;;;;;;;;;;;;100726.91;;;;104390;1314;34625;-39
2022/06/29 10:19:40;;;;;;;;;;;;;;100728.52;;;;104355;1316;34411;-38
2022/06/29 10:22:11;;;;;;;;;;;;;;100731.63;;;;104107;1322;34032;-37
2022/06/29 10:24:56;;;;;;;;;;;;;;100726.70;;;;104375;1316;35350;-37
2022/06/29 10:27:31;;;;;;;;;;;;;;100723.05;;;;104295;1316;34847;-37
2022/06/29 10:30:23;;;;;;;;;;;;;;100725.95;;;;104317;1310;35372;-36
2022/06/29 10:32:54;;;;;;;;;;;;;;100724.84;;;;104394;1316;33622;-36
2022/06/29 10:35:32;;;;;;;;;;;;;;100719.41;;;;104368;1316;35411;-36
2022/06/29 10:38:02;;;;;;;;;;;;;;100714.08;;;;104369;1314;34081;-38
2022/06/29 10:40:33;;;;;;;;;;;;;;100712.46;;;;104381;1316;35742;-38
2022/06/29 10:43:12;;;;;;;;;;;;;;100714.18;;;;104351;1316;33103;-38
2022/06/29 10:45:53;;;;;;;;;;;;;;100715.53;;;;104384;1317;34463;-37
2022/06/29 10:48:30;;;;;;;;;;;;;;100713.79;;;;104381;1314;33535;-36
2022/06/29 10:51:02;;;;;;;;;;;;;;100707.18;;;;104363;1311;35314;-36
2022/06/29 10:53:33;;;;;;;;;;;;;;100700.31;;;;104356;1313;34289;-36
2022/06/29 10:56:07;;;;;;;;;;;;;;100698.98;;;;104362;1315;33802;-36
2022/06/29 10:58:38;;;;;;;;;;;;;;100697.08;;;;104355;1314;35423;-36
2022/06/29 11:01:08;;;;;;;;;;;;;;100700.01;;;;104347;1317;35505;-37
2022/06/29 11:03:40;;;;;;;;;;;;;;100696.50;;;;104344;1314;35450;-37
2022/06/29 11:12:04;;;;;;;;;;;;;;100689.62;;;;104023;1318;426727;-36
2022/06/29 11:17:46;;;;;;;;;;;;;;100695.38;;;;104019;1318;36311;-37
2022/06/29 11:20:23;;;;;;;;;;;;;;100699.59;;;;104365;1314;34695;-37
2022/06/29 11:22:55;;;;;;;;;;;;;;100698.61;;;;104401;1311;35687;-43
2022/06/29 11:25:25;;;;;;;;;;;;;;100698.66;;;;104359;1317;34208;-40
2022/06/29 11:28:00;;;;;;;;;;;;;;100698.42;;;;104372;1315;35373;-48
2022/06/29 11:30:31;;;;;;;;;;;;;;100696.95;;;;104372;1316;34942;-44
2022/06/29 11:33:10;;;;;;;;;;;;;;100695.08;;;;104373;1314;34515;-42
2022/06/29 11:35:42;;;;;;;;;;;;;;100691.49;;;;104359;1315;33193;-42
2022/06/29 11:38:13;;;;;;;;;;;;;;100683.48;;;;104360;1317;35403;-40
2022/06/29 11:40:50;;;;;;;;;;;;;;100681.64;;;;104329;1314;35317;-38
2022/06/29 11:43:21;;;;;;;;;;;;;;100674.98;;;;104366;1315;35341;-38
2022/06/29 11:45:54;;;;;;;;;;;;;;100672.11;;;;104311;1317;35172;-38
2022/06/29 11:48:26;;;;;;;;;;;;;;100669.09;;;;104356;1316;35788;-37
2022/06/29 11:50:57;;;;;;;;;;;;;;100673.98;;;;104339;1309;35528;-37
2022/06/29 11:53:43;;;;;;;;;;;;;;100674.59;;;;104323;1318;34870;-37
2022/06/29 11:56:15;;;;;;;;;;;;;;100672.15;;;;104355;1313;33112;-37
2022/06/29 11:58:49;;;;;;;;;;;;;;100666.75;;;;104295;1318;33301;-37
2022/06/29 12:01:21;;;;;;;;;;;;;;100664.56;;;;104350;1315;34131;-39
2022/06/29 12:03:53;;;;;;;;;;;;;;100662.98;;;;104342;1315;34478;-39
2022/06/29 12:06:25;;;;;;;;;;;;;;100660.43;;;;104356;1312;33976;-43
2022/06/29 12:08:56;;;;;;;;;;;;;;100658.30;;;;104320;1309;34939;-41
2022/06/29 12:11:28;;;;;;;;;;;;;;100653.96;;;;104362;1316;35293;-39
2022/06/29 12:13:59;;;;;;;;;;;;;;100647.83;;;;104365;1314;34526;-40
2022/06/29 12:16:30;;;;;;;;;;;;;;100644.38;;;;104335;1314;35531;-37
2022/06/29 12:19:01;;;;;;;;;;;;;;100642.35;;;;104364;1309;34951;-38
2022/06/29 12:21:34;;;;;;;;;;;;;;100641.10;;;;104347;1316;33986;-38
2022/06/29 12:24:05;;;;;;;;;;;;;;100634.95;;;;104358;1316;34234;-40
2022/06/29 12:26:36;;;;;;;;;;;;;;100632.54;;;;104402;1314;33659;-40
2022/06/29 12:29:07;;;;;;;;;;;;;;100631.52;;;;104335;1314;34261;-43
2022/06/29 12:31:40;;;;;;;;;;;;;;100626.30;;;;104353;1316;35485;-42
2022/06/29 12:34:11;;;;;;;;;;;;;;100622.70;;;;104360;1313;33525;-41
2022/06/29 12:36:42;;;;;;;;;;;;;;100615.65;;;;104335;1314;33576;-43
2022/06/29 12:39:15;;;;;;;;;;;;;;100603.49;;;;104345;1313;35323;-41
2022/06/29 12:41:46;;;;;;;;;;;;;;100598.99;;;;104319;1313;35452;-42
2022/06/29 12:44:17;;;;;;;;;;;;;;100596.55;;;;104384;1316;33215;-39
2022/06/29 12:46:48;;;;;;;;;;;;;;100593.52;;;;104355;1316;34586;-44
2022/06/29 12:49:19;;;;;;;;;;;;;;100589.13;;;;104357;1317;35321;-41
2022/06/29 12:51:50;;;;;;;;;;;;;;100582.93;;;;104388;1310;34354;-42
2022/06/29 12:54:21;;;;;;;;;;;;;;100576.85;;;;104374;1316;34927;-41
2022/06/29 12:56:54;;;;;;;;;;;;;;100578.52;;;;104365;1310;33578;-42
2022/06/29 12:59:28;;;;;;;;;;;;;;100578.79;;;;104378;1315;34885;-41
2022/06/29 13:01:59;;;;;;;;;;;;;;100576.15;;;;104321;1317;35026;-41
2022/06/29 13:04:32;;;;;;;;;;;;;;100568.09;;;;104358;1313;34846;-41
2022/06/29 13:07:03;;;;;;;;;;;;;;100563.76;;;;104343;1314;35096;-42
2022/06/29 13:09:33;;;;;;;;;;;;;;100561.88;;;;104351;1316;35473;-44
2022/06/29 13:12:05;;;;;;;;;;;;;;100561.70;;;;104349;1312;34798;-42
2022/06/29 13:14:36;;;;;;;;;;;;;;100556.95;;;;104371;1314;33555;-42
2022/06/29 13:17:08;;;;;;;;;;;;;;100558.75;;;;104365;1314;34919;-42
2022/06/29 13:19:39;;;;;;;;;;;;;;100558.23;;;;104318;1317;34850;-42
2022/06/29 13:22:13;;;;;;;;;;;;;;100556.18;;;;104393;1314;34979;-43
2022/06/29 13:24:44;;;;;;;;;;;;;;100550.52;;;;104407;1314;35319;-42
2022/06/29 13:27:14;;;;;;;;;;;;;;100551.84;;;;104372;1315;35784;-42
2022/06/29 13:29:45;;;;;;;;;;;;;;100547.63;;;;104382;1314;34189;-41
2022/06/29 13:32:16;;;;;;;;;;;;;;100542.67;;;;104379;1316;35882;-42
2022/06/29 13:34:49;;;;;;;;;;;;;;100534.52;;;;104351;1314;34929;-41
2022/06/29 13:37:20;;;;;;;;;;;;;;100536.92;;;;104343;1316;33180;-42
2022/06/29 13:39:54;;;;;;;;;;;;;;100536.33;;;;104377;1316;35979;-42
2022/06/29 13:42:24;;;;;;;;;;;;;;100536.52;;;;104342;1316;34958;-43
2022/06/29 13:44:55;;;;;;;;;;;;;;100537.23;;;;104349;1316;35931;-42
2022/06/29 13:47:26;;;;;;;;;;;;;;100533.04;;;;104366;1314;34420;-41
2022/06/29 13:49:57;;;;;;;;;;;;;;100530.92;;;;104347;1315;34768;-42
2022/06/29 13:52:27;;;;;;;;;;;;;;100527.84;;;;104361;1314;35977;-42
2022/06/29 13:54:59;;;;;;;;;;;;;;100527.30;;;;104333;1311;33955;-41
2022/06/29 13:57:30;;;;;;;;;;;;;;100529.09;;;;104370;1313;33563;-42
2022/06/29 14:00:01;;;;;;;;;;;;;;100531.48;;;;104344;1316;33640;-41
2022/06/29 14:02:31;;;;;;;;;;;;;;100529.76;;;;104378;1316;35314;-41
2022/06/29 14:05:02;;;;;;;;;;;;;;100529.12;;;;104391;1316;35463;-41
2022/06/29 14:07:36;;;;;;;;;;;;;;100525.89;;;;104370;1315;33722;-41
2022/06/29 14:10:07;;;;;;;;;;;;;;100527.27;;;;104369;1316;34505;-41
2022/06/29 14:12:38;;;;;;;;;;;;;;100527.08;;;;104399;1314;34875;-41
2022/06/29 14:15:11;;;;;;;;;;;;;;100524.96;;;;104357;1311;33170;-41
2022/06/29 14:17:42;;;;;;;;;;;;;;100519.45;;;;104390;1314;34346;-42
2022/06/29 14:20:13;;;;;;;;;;;;;;100516.26;;;;104372;1314;35298;-42
2022/06/29 14:22:44;;;;;;;;;;;;;;100516.88;;;;104382;1316;35848;-42
2022/06/29 14:25:15;;;;;;;;;;;;;;100519.70;;;;104378;1316;33673;-42
2022/06/29 14:27:46;;;;;;;;;;;;;;100520.70;;;;104355;1316;35474;-42
2022/06/29 14:30:17;;;;;;;;;;;;;;100524.13;;;;104358;1316;35325;-42
2022/06/29 14:32:48;;;;;;;;;;;;;;100525.85;;;;104375;1316;33184;-44
2022/06/29 14:35:18;;;;;;;;;;;;;;100524.48;;;;104354;1311;34940;-42
2022/06/29 14:37:49;;;;;;;;;;;;;;100525.20;;;;104342;1315;34788;-39
2022/06/29 14:40:21;;;;;;;;;;;;;;100518.74;;;;104333;1316;35450;-39
2022/06/29 14:42:52;;;;;;;;;;;;;;100516.45;;;;104382;1314;34495;-36
2022/06/29 14:45:23;;;;;;;;;;;;;;100517.21;;;;104360;1316;35373;-37
2022/06/29 14:47:54;;;;;;;;;;;;;;100516.11;;;;104370;1316;34408;-39
2022/06/29 14:50:25;;;;;;;;;;;;;;100513.29;;;;104370;1314;34815;-37
2022/06/29 14:52:55;;;;;;;;;;;;;;100512.69;;;;104346;1310;35461;-42
2022/06/29 14:55:26;;;;;;;;;;;;;;100509.40;;;;104363;1316;35912;-43
2022/06/29 14:57:57;;;;;;;;;;;;;;100507.48;;;;104377;1314;35290;-42
2022/06/29 15:00:29;;;;;;;;;;;;;;100506.16;;;;104354;1316;34922;-45
2022/06/29 15:02:59;;;;;;;;;;;;;;100502.77;;;;104398;1314;34839;-40
2022/06/29 15:05:31;;;;;;;;;;;;;;100501.40;;;;104377;1316;35752;-40
2022/06/29 15:08:04;;;;;;;;;;;;;;100499.64;;;;104331;1314;35425;-40
2022/06/29 15:10:35;;;;;;;;;;;;;;100494.61;;;;104377;1313;34390;-40